createdAt,value
2018-06-14T00:02:09.842Z,3.83
2018-06-14T00:04:38.192Z,4.13
2018-06-14T00:07:06.520Z,3.93
2018-06-14T00:09:34.548Z,4.23
2018-06-14T00:12:02.830Z,4.10
2018-06-14T00:14:31.140Z,4.30
2018-06-14T00:16:59.164Z,4.23
2018-06-14T00:19:27.476Z,4.17
2018-06-14T00:21:55.525Z,4.40
2018-06-14T00:24:23.842Z,4.30
2018-06-14T00:26:52.158Z,4.17
2018-06-14T00:29:20.464Z,4.33
2018-06-14T00:31:48.758Z,4.30
2018-06-14T00:34:17.086Z,5.13
2018-06-14T00:36:45.368Z,4.73
2018-06-14T00:39:13.694Z,4.70
2018-06-14T00:41:41.745Z,4.93
2018-06-14T00:44:10.051Z,4.50
2018-06-14T00:46:38.366Z,4.70
2018-06-14T00:49:06.622Z,4.90
2018-06-14T00:51:34.948Z,5.03
2018-06-14T00:54:03.234Z,5.33
2018-06-14T00:56:41.690Z,5.10
2018-06-14T00:59:10.020Z,6.13
2018-06-14T01:01:38.324Z,4.87
2018-06-14T01:04:06.619Z,4.57
2018-06-14T01:06:34.924Z,5.73
2018-06-14T01:09:03.247Z,5.93
2018-06-14T01:11:31.560Z,5.33
2018-06-14T01:13:59.853Z,5.73
2018-06-14T01:16:28.126Z,5.60
2018-06-14T01:18:56.460Z,5.30
2018-06-14T01:21:24.775Z,5.63
2018-06-14T01:23:53.082Z,5.80
2018-06-14T01:26:21.417Z,5.30
2018-06-14T01:28:49.712Z,5.70
2018-06-14T01:31:18.057Z,5.43
2018-06-14T01:33:46.350Z,5.23
2018-06-14T01:36:14.644Z,6.60
2018-06-14T01:38:42.972Z,6.10
2018-06-14T01:41:11.280Z,6.00
2018-06-14T01:43:39.556Z,6.63
2018-06-14T01:46:07.852Z,6.23
2018-06-14T01:48:36.151Z,6.80
2018-06-14T01:51:04.452Z,6.97
2018-06-14T01:53:32.766Z,6.17
2018-06-14T01:56:01.048Z,6.97
2018-06-14T01:58:30.008Z,7.00
2018-06-14T02:00:59.683Z,7.17
2018-06-14T02:03:27.958Z,6.80
2018-06-14T02:05:56.257Z,7.07
2018-06-14T02:08:24.303Z,7.00
2018-06-14T02:10:52.606Z,6.93
2018-06-14T02:13:20.922Z,6.77
2018-06-14T02:15:49.204Z,7.23
2018-06-14T02:18:17.499Z,6.83
2018-06-14T02:20:45.794Z,6.87
2018-06-14T02:23:14.115Z,7.30
2018-06-14T02:25:42.412Z,7.23
2018-06-14T02:28:10.712Z,7.60
2018-06-14T02:30:39.030Z,7.37
2018-06-14T02:33:07.338Z,6.77
2018-06-14T02:35:35.626Z,7.17
2018-06-14T02:38:03.924Z,7.00
2018-06-14T02:40:32.239Z,7.27
2018-06-14T02:43:00.538Z,7.37
2018-06-14T02:45:28.890Z,7.03
2018-06-14T02:47:57.194Z,6.63
2018-06-14T02:50:25.480Z,7.83
2018-06-14T02:52:53.837Z,8.33
2018-06-14T02:55:22.122Z,7.77
2018-06-14T02:57:50.454Z,6.97
2018-06-14T03:00:18.832Z,7.97
2018-06-14T03:02:47.132Z,7.70
2018-06-14T03:05:15.532Z,7.90
2018-06-14T03:07:43.828Z,8.07
2018-06-14T03:10:12.156Z,8.60
2018-06-14T03:12:40.459Z,8.17
2018-06-14T03:15:08.752Z,7.97
2018-06-14T03:17:37.050Z,8.93
2018-06-14T03:20:05.416Z,8.23
2018-06-14T03:22:33.740Z,7.93
2018-06-14T03:25:01.786Z,8.63
2018-06-14T03:27:30.072Z,8.03
2018-06-14T03:29:58.391Z,8.77
2018-06-14T03:32:26.677Z,8.23
2018-06-14T03:34:55.017Z,8.50
2018-06-14T03:37:23.325Z,8.80
2018-06-14T03:39:51.637Z,7.90
2018-06-14T03:42:20.020Z,7.97
2018-06-14T03:44:49.233Z,8.73
2018-06-14T03:47:17.569Z,8.23
2018-06-14T03:49:45.883Z,8.30
2018-06-14T03:52:14.250Z,7.50
2018-06-14T03:54:42.325Z,7.90
2018-06-14T03:57:10.628Z,8.20
2018-06-14T03:59:38.969Z,7.33
2018-06-14T04:02:07.266Z,8.27
2018-06-14T04:04:35.587Z,7.33
2018-06-14T04:07:03.909Z,8.63
2018-06-14T04:09:32.258Z,7.17
2018-06-14T04:12:00.588Z,7.10
2018-06-14T04:14:28.887Z,8.23
2018-06-14T04:16:57.169Z,8.30
2018-06-14T04:19:25.471Z,8.17
2018-06-14T04:21:53.795Z,7.90
2018-06-14T04:24:22.161Z,7.27
2018-06-14T04:26:50.497Z,7.40
2018-06-14T04:29:18.827Z,7.23
2018-06-14T04:31:47.138Z,7.20
2018-06-14T04:34:15.429Z,7.37
2018-06-14T04:36:43.772Z,7.40
2018-06-14T04:39:12.059Z,7.00
2018-06-14T04:41:40.361Z,7.30
2018-06-14T04:44:08.697Z,7.73
2018-06-14T04:46:37.021Z,7.87
2018-06-14T04:49:05.474Z,7.10
2018-06-14T04:51:39.236Z,6.97
2018-06-14T04:54:07.319Z,7.43
2018-06-14T04:56:35.619Z,7.57
2018-06-14T04:59:03.934Z,7.10
2018-06-14T05:01:32.275Z,7.50
2018-06-14T05:04:00.624Z,7.67
2018-06-14T05:06:28.963Z,7.57
2018-06-14T05:08:57.298Z,8.03
2018-06-14T05:11:25.622Z,8.17
2018-06-14T05:13:53.944Z,7.53
2018-06-14T05:16:22.262Z,8.23
2018-06-14T05:18:50.604Z,7.63
2018-06-14T05:21:18.928Z,7.60
2018-06-14T05:23:47.604Z,8.30
2018-06-14T05:26:15.904Z,8.30
2018-06-14T05:28:44.249Z,8.17
2018-06-14T05:31:12.538Z,8.67
2018-06-14T05:33:40.838Z,7.80
2018-06-14T05:36:09.155Z,8.63
2018-06-14T05:38:37.453Z,7.57
2018-06-14T05:41:05.770Z,7.77
2018-06-14T05:43:34.087Z,7.83
2018-06-14T05:46:02.364Z,7.53
2018-06-14T05:48:30.648Z,7.70
2018-06-14T05:50:58.944Z,7.57
2018-06-14T05:53:27.516Z,7.27
2018-06-14T05:55:55.818Z,6.60
2018-06-14T05:58:24.160Z,7.07
2018-06-14T06:00:52.450Z,6.80
2018-06-14T06:03:20.788Z,6.90
2018-06-14T06:05:49.092Z,6.93
2018-06-14T06:08:17.412Z,6.73
2018-06-14T06:10:45.704Z,6.93
2018-06-14T06:13:14.021Z,6.73
2018-06-14T06:15:42.364Z,7.37
2018-06-14T06:18:10.444Z,6.87
2018-06-14T06:20:38.761Z,7.50
2018-06-14T06:23:07.109Z,7.33
2018-06-14T06:25:35.398Z,7.53
2018-06-14T06:28:03.703Z,7.20
2018-06-14T06:30:32.042Z,7.27
2018-06-14T06:33:00.672Z,6.97
2018-06-14T06:35:28.986Z,7.57
2018-06-14T06:37:57.314Z,7.23
2018-06-14T06:40:25.658Z,7.17
2018-06-14T06:42:53.964Z,6.90
2018-06-14T06:45:22.312Z,7.30
2018-06-14T06:47:50.612Z,7.53
2018-06-14T06:50:18.930Z,7.10
2018-06-14T06:52:47.227Z,6.97
2018-06-14T06:55:15.498Z,7.43
2018-06-14T06:57:43.808Z,6.60
2018-06-14T07:00:12.111Z,6.90
2018-06-14T07:02:40.396Z,6.67
2018-06-14T07:05:08.750Z,6.83
2018-06-14T07:07:37.022Z,7.50
2018-06-14T07:10:05.451Z,6.83
2018-06-14T07:12:33.530Z,6.50
2018-06-14T07:15:01.843Z,7.03
2018-06-14T07:17:30.132Z,6.73
2018-06-14T07:19:58.490Z,7.07
2018-06-14T07:22:26.818Z,7.10
2018-06-14T07:24:55.114Z,6.83
2018-06-14T07:27:23.194Z,7.47
2018-06-14T07:29:51.487Z,7.40
2018-06-14T07:32:19.808Z,7.20
2018-06-14T07:34:48.228Z,6.73
2018-06-14T07:37:16.516Z,7.17
2018-06-14T07:39:44.831Z,7.13
2018-06-14T07:42:13.161Z,7.70
2018-06-14T07:44:41.456Z,7.20
2018-06-14T07:47:09.772Z,7.73
2018-06-14T07:49:38.123Z,7.50
2018-06-14T07:52:06.458Z,7.27
2018-06-14T07:54:34.523Z,7.87
2018-06-14T07:57:02.578Z,7.37
2018-06-14T07:59:30.892Z,7.70
2018-06-14T08:01:59.214Z,7.70
2018-06-14T08:04:27.536Z,7.77
2018-06-14T08:06:55.847Z,7.97
2018-06-14T08:09:24.185Z,8.00
2018-06-14T08:11:52.475Z,7.80
2018-06-14T08:14:20.800Z,7.87
2018-06-14T08:16:49.344Z,8.40
2018-06-14T08:19:17.779Z,7.60
2018-06-14T08:21:46.136Z,7.27
2018-06-14T08:24:14.427Z,7.70
2018-06-14T08:26:42.706Z,8.20
2018-06-14T08:29:11.015Z,7.73
2018-06-14T08:31:39.309Z,8.57
2018-06-14T08:34:07.644Z,8.53
2018-06-14T08:36:35.957Z,8.20
2018-06-14T08:39:06.092Z,8.83
2018-06-14T08:41:34.434Z,8.60
2018-06-14T08:44:02.506Z,8.30
2018-06-14T08:46:30.808Z,8.57
2018-06-14T08:48:59.112Z,8.17
2018-06-14T08:51:27.457Z,8.47
2018-06-14T08:53:55.777Z,8.40
2018-06-14T08:56:24.176Z,8.60
2018-06-14T08:58:52.459Z,9.10
2018-06-14T09:01:20.774Z,8.63
2018-06-14T09:03:49.117Z,8.40
2018-06-14T09:06:17.418Z,9.13
2018-06-14T09:08:45.777Z,7.60
2018-06-14T09:33:51.301Z,7.57
2018-06-14T09:36:19.684Z,5.60
2018-06-14T09:38:48.002Z,5.43
2018-06-14T09:41:16.344Z,6.20
2018-06-14T09:43:44.747Z,6.27
2018-06-14T09:46:13.080Z,5.83
2018-06-14T09:48:41.370Z,5.60
2018-06-14T09:51:09.702Z,4.70
2018-06-14T09:53:38.017Z,4.63
2018-06-14T09:56:06.418Z,4.73
2018-06-14T09:58:34.706Z,5.07
2018-06-14T10:01:03.038Z,4.90
2018-06-14T10:03:31.358Z,4.80
2018-06-14T10:05:59.963Z,5.37
2018-06-14T10:08:28.315Z,4.73
2018-06-14T10:10:56.639Z,4.53
2018-06-14T10:13:24.937Z,4.93
2018-06-14T10:15:53.262Z,4.23
2018-06-14T10:18:21.599Z,5.67
2018-06-14T10:20:49.915Z,5.50
2018-06-14T10:23:18.217Z,4.70
2018-06-14T10:25:46.527Z,5.37
2018-06-14T10:28:14.838Z,4.83
2018-06-14T10:30:43.131Z,6.03
2018-06-14T10:33:11.649Z,5.63
2018-06-14T10:35:39.969Z,5.67
2018-06-14T10:38:08.320Z,5.17
2018-06-14T10:40:36.643Z,4.57
2018-06-14T10:43:06.023Z,5.33
2018-06-14T10:45:34.817Z,5.70
2018-06-14T10:48:03.191Z,5.40
2018-06-14T10:50:31.511Z,5.63
2018-06-14T10:52:59.817Z,5.23
2018-06-14T10:55:28.863Z,5.33
2018-06-14T10:57:57.217Z,5.10
2018-06-14T11:00:25.624Z,5.33
2018-06-14T11:02:54.096Z,4.53
2018-06-14T11:05:22.426Z,5.00
2018-06-14T11:07:50.727Z,4.70
2018-06-14T11:10:19.054Z,4.50
2018-06-14T11:12:47.483Z,4.37
2018-06-14T11:15:15.992Z,4.57
2018-06-14T11:17:44.099Z,5.03
2018-06-14T11:20:12.429Z,4.87
2018-06-14T11:22:40.782Z,5.10
2018-06-14T11:25:09.114Z,4.77
2018-06-14T11:27:37.476Z,4.50
2018-06-14T11:30:05.991Z,4.40
2018-06-14T11:32:34.276Z,5.57
2018-06-14T11:35:02.588Z,4.60
2018-06-14T11:37:30.902Z,5.13
2018-06-14T11:39:59.274Z,5.00
2018-06-14T11:42:27.584Z,5.23
2018-06-14T11:44:56.062Z,4.83
2018-06-14T11:47:24.371Z,5.47
2018-06-14T11:49:52.785Z,5.43
2018-06-14T11:52:21.115Z,5.70
2018-06-14T11:54:49.422Z,5.63
2018-06-14T11:57:17.658Z,5.10
2018-06-14T11:59:53.028Z,4.93
2018-06-14T12:02:22.042Z,4.67
2018-06-14T12:04:50.996Z,5.90
2018-06-14T12:07:19.350Z,6.53
2018-06-14T12:09:47.670Z,5.97
2018-06-14T12:12:16.864Z,6.60
2018-06-14T12:14:45.330Z,6.60
2018-06-14T12:17:13.686Z,6.50
2018-06-14T12:19:41.989Z,6.27
2018-06-14T12:22:10.360Z,7.40
2018-06-14T12:24:38.686Z,7.63
2018-06-14T12:27:06.978Z,7.20
2018-06-14T12:29:35.303Z,6.67
2018-06-14T12:32:03.644Z,7.00
2018-06-14T12:34:31.953Z,7.27
2018-06-14T12:37:00.317Z,6.47
2018-06-14T12:39:28.687Z,6.43
2018-06-14T12:41:57.006Z,7.30
2018-06-14T12:44:25.308Z,7.20
2018-06-14T12:46:53.593Z,6.23
2018-06-14T12:49:21.936Z,7.10
2018-06-14T12:51:50.247Z,7.23
2018-06-14T12:54:18.584Z,6.57
2018-06-14T12:56:46.932Z,6.83
2018-06-14T12:59:15.256Z,6.57
2018-06-14T13:01:43.335Z,6.87
2018-06-14T13:04:11.782Z,5.43
2018-06-14T13:06:40.084Z,6.00
2018-06-14T13:09:09.077Z,6.87
2018-06-14T13:11:37.389Z,6.20
2018-06-14T13:14:05.695Z,6.00
2018-06-14T13:16:34.035Z,5.50
2018-06-14T13:19:02.338Z,6.47
2018-06-14T13:21:30.684Z,5.97
2018-06-14T13:23:59.053Z,6.20
2018-06-14T13:26:27.364Z,6.20
2018-06-14T13:28:56.161Z,6.60
2018-06-14T13:31:24.739Z,6.00
2018-06-14T13:33:53.115Z,6.20
2018-06-14T13:36:21.527Z,6.20
2018-06-14T13:38:49.856Z,6.17
2018-06-14T13:41:18.254Z,5.80
2018-06-14T13:43:47.137Z,5.60
2018-06-14T13:46:15.501Z,5.10
2018-06-14T13:48:43.877Z,5.90
2018-06-14T13:51:12.174Z,4.77
2018-06-14T13:53:40.572Z,5.60
2018-06-14T13:56:08.916Z,5.70
2018-06-14T13:58:37.241Z,5.70
2018-06-14T14:01:05.655Z,4.87
2018-06-14T14:03:33.899Z,5.50
2018-06-14T14:06:01.949Z,4.87
2018-06-14T14:08:30.305Z,5.60
2018-06-14T14:10:58.683Z,5.30
2018-06-14T14:13:27.015Z,5.23
2018-06-14T14:15:55.323Z,5.90
2018-06-14T14:18:23.651Z,5.50
2018-06-14T14:20:52.041Z,6.20
2018-06-14T14:23:20.383Z,5.60
2018-06-14T14:25:48.700Z,6.03
2018-06-14T14:28:17.008Z,6.27
2018-06-14T14:30:45.334Z,6.47
2018-06-14T14:33:13.660Z,6.13
2018-06-14T14:35:41.940Z,6.60
2018-06-14T14:38:10.268Z,7.63
2018-06-14T14:40:38.595Z,7.73
2018-06-14T14:43:06.917Z,7.30
2018-06-14T14:45:35.233Z,7.57
2018-06-14T14:48:03.583Z,7.50
2018-06-14T14:50:31.917Z,7.53
2018-06-14T14:53:00.280Z,7.13
2018-06-14T14:55:28.617Z,7.50
2018-06-14T14:57:57.107Z,7.67
2018-06-14T15:00:25.485Z,7.67
2018-06-14T15:02:53.820Z,7.97
2018-06-14T15:05:22.173Z,8.37
2018-06-14T15:07:50.458Z,7.77
2018-06-14T15:10:18.843Z,8.33
2018-06-14T15:12:47.181Z,8.40
2018-06-14T15:15:15.577Z,8.87
2018-06-14T15:17:43.975Z,9.57
2018-06-14T15:20:12.331Z,9.63
2018-06-14T15:22:40.664Z,8.90
2018-06-14T15:25:09.005Z,9.50
2018-06-14T15:27:37.285Z,9.80
2018-06-14T15:30:05.625Z,10.20
2018-06-14T15:32:33.943Z,10.47
2018-06-14T15:35:02.273Z,10.30
2018-06-14T15:37:30.736Z,10.73
2018-06-14T15:40:02.601Z,11.17
2018-06-14T15:42:30.963Z,10.73
2018-06-14T15:44:59.321Z,10.47
2018-06-14T15:47:27.736Z,11.50
2018-06-14T15:49:56.080Z,11.27
2018-06-14T15:52:24.434Z,11.27
2018-06-14T15:55:04.157Z,12.17
2018-06-14T15:57:32.514Z,11.57
2018-06-14T16:00:00.911Z,11.73
2018-06-14T16:02:29.259Z,11.20
2018-06-14T16:04:57.593Z,11.83
2018-06-14T16:07:25.912Z,11.87
2018-06-14T16:09:54.265Z,12.83
2018-06-14T16:12:22.601Z,11.50
2018-06-14T16:14:50.951Z,11.53
2018-06-14T16:17:19.050Z,12.37
2018-06-14T16:19:47.423Z,11.60
2018-06-14T16:22:15.755Z,12.37
2018-06-14T16:24:44.115Z,13.07
2018-06-14T16:27:12.429Z,12.63
2018-06-14T16:29:40.767Z,12.07
2018-06-14T16:32:09.115Z,14.87
2018-06-14T16:34:37.497Z,13.37
2018-06-14T16:37:05.843Z,13.67
2018-06-14T16:39:34.193Z,12.20
2018-06-14T16:42:02.545Z,11.73
2018-06-14T16:44:30.863Z,12.43
2018-06-14T16:46:59.192Z,12.17
2018-06-14T16:49:27.518Z,12.57
2018-06-14T16:51:55.852Z,12.90
2018-06-14T16:54:24.173Z,12.73
2018-06-14T16:56:52.549Z,13.07
2018-06-14T16:59:20.924Z,12.67
2018-06-14T17:01:49.265Z,12.33
2018-06-14T17:04:17.608Z,11.93
2018-06-14T17:06:45.933Z,13.03
2018-06-14T17:09:14.313Z,12.83
2018-06-14T17:11:42.655Z,11.73
2018-06-14T17:14:10.984Z,12.10
2018-06-14T17:16:39.285Z,11.80
2018-06-14T17:19:07.493Z,12.70
2018-06-14T17:21:35.812Z,12.63
2018-06-14T17:24:04.152Z,12.43
2018-06-14T17:26:32.464Z,12.83
2018-06-14T17:29:00.856Z,13.73
2018-06-14T17:31:29.173Z,13.00
2018-06-14T17:33:57.483Z,12.57
2018-06-14T17:36:25.766Z,12.97
2018-06-14T17:38:54.078Z,11.90
2018-06-14T17:41:22.454Z,12.20
2018-06-14T17:43:50.773Z,12.30
2018-06-14T17:46:19.127Z,12.10
2018-06-14T17:48:47.487Z,12.40
2018-06-14T17:51:19.215Z,12.03
2018-06-14T17:53:47.584Z,12.17
2018-06-14T17:56:15.559Z,11.40
2018-06-14T17:58:43.877Z,12.30
2018-06-14T18:01:12.221Z,12.80
2018-06-14T18:03:41.157Z,12.40
2018-06-14T18:06:09.471Z,12.83
2018-06-14T18:08:37.825Z,12.73
2018-06-14T18:11:06.134Z,12.20
2018-06-14T18:13:34.465Z,13.03
2018-06-14T18:16:02.747Z,12.67
2018-06-14T18:18:31.074Z,13.03
2018-06-14T18:20:59.623Z,12.33
2018-06-14T18:23:27.933Z,11.73
2018-06-14T18:25:56.248Z,12.60
2018-06-14T18:28:24.589Z,12.07
2018-06-14T18:30:52.909Z,11.87
2018-06-14T18:33:21.238Z,12.20
2018-06-14T18:35:49.563Z,11.87
2018-06-14T18:38:17.877Z,12.40
2018-06-14T18:40:46.184Z,11.10
2018-06-14T18:43:14.277Z,12.13
2018-06-14T18:45:42.494Z,12.20
2018-06-14T18:48:11.125Z,12.10
2018-06-14T18:50:39.519Z,11.97
2018-06-14T18:53:08.451Z,11.87
2018-06-14T18:55:36.819Z,12.37
2018-06-14T18:58:05.464Z,11.67
2018-06-14T19:00:33.964Z,12.30
2018-06-14T19:03:02.974Z,12.73
2018-06-14T19:05:31.887Z,12.07
2018-06-14T19:08:00.773Z,11.80
2018-06-14T19:10:29.701Z,11.70
2018-06-14T19:12:58.673Z,11.97
2018-06-14T19:15:27.611Z,12.00
2018-06-14T19:17:56.494Z,11.83
2018-06-14T19:20:24.978Z,11.93
2018-06-14T19:22:53.759Z,11.60
2018-06-14T19:25:22.649Z,11.27
2018-06-14T19:27:51.435Z,11.30
2018-06-14T19:30:20.201Z,11.10
2018-06-14T19:32:49.095Z,11.80
2018-06-14T19:35:17.931Z,11.97
2018-06-14T19:37:46.447Z,11.23
2018-06-14T19:40:15.329Z,11.10
2018-06-14T19:42:44.177Z,11.53
2018-06-14T19:45:12.759Z,11.80
2018-06-14T19:47:41.066Z,11.47
2018-06-14T19:50:09.387Z,11.93
2018-06-14T19:52:37.434Z,12.33
2018-06-14T19:55:05.744Z,11.87
2018-06-14T19:57:34.231Z,12.37
2018-06-14T20:00:02.615Z,13.10
2018-06-14T20:02:30.935Z,12.20
2018-06-14T20:04:59.354Z,13.20
2018-06-14T20:07:28.355Z,13.37
2018-06-14T20:09:57.103Z,12.50
2018-06-14T20:12:25.681Z,12.57
2018-06-14T20:14:54.278Z,12.80
2018-06-14T20:17:22.794Z,12.50
2018-06-14T20:19:51.665Z,13.40
2018-06-14T20:22:20.197Z,14.03
2018-06-14T20:24:48.737Z,12.97
2018-06-14T20:27:17.323Z,12.83
2018-06-14T20:29:45.858Z,13.80
2018-06-14T20:32:14.407Z,13.70
2018-06-14T20:34:42.959Z,13.73
2018-06-14T20:37:11.461Z,13.40
2018-06-14T20:39:40.494Z,12.57
2018-06-14T20:42:08.901Z,13.67
2018-06-14T20:44:37.209Z,12.40
2018-06-14T20:47:05.529Z,12.97
2018-06-14T20:49:33.843Z,14.13
2018-06-14T20:52:02.173Z,13.67
2018-06-14T20:54:30.470Z,14.07
2018-06-14T20:56:58.772Z,14.37
2018-06-14T20:59:26.980Z,15.13
2018-06-14T21:01:55.288Z,15.40
2018-06-14T21:04:23.676Z,15.30
2018-06-14T21:06:51.960Z,15.23
2018-06-14T21:09:20.339Z,15.57
2018-06-14T21:11:48.670Z,14.97
2018-06-14T21:14:16.990Z,15.50
2018-06-14T21:16:45.356Z,15.67
2018-06-14T21:19:13.674Z,16.27
2018-06-14T21:21:42.031Z,16.80
2018-06-14T21:24:10.332Z,17.00
2018-06-14T21:26:38.640Z,17.67
2018-06-14T21:29:07.036Z,17.87
2018-06-14T21:31:35.419Z,18.10
2018-06-14T21:34:03.764Z,19.30
2018-06-14T21:36:32.091Z,18.67
2018-06-14T21:39:00.420Z,18.60
2018-06-14T21:41:28.743Z,18.57
2018-06-14T21:43:57.082Z,20.00
2018-06-14T21:46:25.420Z,19.23
2018-06-14T21:48:54.227Z,19.37
2018-06-14T21:51:22.287Z,18.77
2018-06-14T21:53:50.595Z,19.37
2018-06-14T21:56:18.901Z,20.77
2018-06-14T21:58:47.247Z,20.37
2018-06-14T22:01:15.525Z,20.73
2018-06-14T22:03:49.291Z,21.03
2018-06-14T22:06:17.585Z,20.90
2018-06-14T22:08:45.889Z,21.43
2018-06-14T22:11:14.215Z,20.33
2018-06-14T22:13:42.253Z,21.23
2018-06-14T22:16:10.571Z,21.80
2018-06-14T22:18:38.943Z,21.10
2018-06-14T22:21:07.467Z,20.77
2018-06-14T22:23:35.785Z,21.50
2018-06-14T22:26:04.125Z,21.80
2018-06-14T22:28:34.147Z,21.43
2018-06-14T22:31:02.499Z,21.50
2018-06-14T22:33:42.079Z,22.07
2018-06-14T22:36:10.417Z,22.37
2018-06-14T22:38:38.748Z,21.90
2018-06-14T22:41:07.084Z,20.97
2018-06-14T22:43:35.422Z,22.30
2018-06-14T22:46:03.710Z,23.00
2018-06-14T22:48:32.013Z,22.93
2018-06-14T22:51:12.872Z,21.70
2018-06-14T22:53:41.167Z,23.17
2018-06-14T22:56:09.461Z,22.57
2018-06-14T22:58:37.762Z,22.20
2018-06-14T23:01:46.350Z,24.10
2018-06-14T23:04:16.184Z,23.60
2018-06-14T23:06:44.467Z,24.00
2018-06-14T23:10:26.714Z,24.17
2018-06-14T23:12:55.054Z,25.97
2018-06-14T23:15:23.362Z,27.43
2018-06-14T23:17:52.126Z,25.27
2018-06-14T23:20:22.354Z,24.90
2018-06-14T23:22:51.971Z,25.17
2018-06-14T23:25:21.198Z,24.40
2018-06-14T23:27:49.518Z,25.13
2018-06-14T23:30:18.104Z,24.97
2018-06-14T23:32:46.495Z,25.77
2018-06-14T23:35:14.602Z,26.23
2018-06-14T23:37:42.903Z,25.80
2018-06-14T23:40:11.174Z,26.70
2018-06-14T23:42:39.566Z,25.80
2018-06-14T23:45:07.894Z,26.13
2018-06-14T23:47:36.231Z,26.93
2018-06-14T23:50:04.716Z,26.97
2018-06-14T23:52:33.032Z,27.47
2018-06-14T23:55:01.336Z,27.07
2018-06-14T23:57:29.625Z,26.53
2018-06-14T23:59:57.930Z,27.60
